createdAt,value
2022-08-24T00:01:56.926Z,76.26
2022-08-24T00:04:25.486Z,76.07
2022-08-24T00:06:53.717Z,76.17
2022-08-24T00:09:21.895Z,76.06
2022-08-24T00:11:49.768Z,76.30
2022-08-24T00:14:17.741Z,76.42
2022-08-24T00:16:47.727Z,76.64
2022-08-24T00:19:16.232Z,76.36
2022-08-24T00:21:44.236Z,76.54
2022-08-24T00:24:14.569Z,76.58
2022-08-24T00:26:42.636Z,76.53
2022-08-24T00:29:10.638Z,76.77
2022-08-24T00:31:38.617Z,76.92
2022-08-24T00:34:07.970Z,76.97
2022-08-24T00:36:36.724Z,77.10
2022-08-24T00:39:06.457Z,77.31
2022-08-24T00:41:35.258Z,77.04
2022-08-24T00:44:05.629Z,77.53
2022-08-24T00:46:43.550Z,78.03
2022-08-24T00:49:20.471Z,78.11
2022-08-24T00:51:56.314Z,78.20
2022-08-24T00:54:27.947Z,78.15
2022-08-24T00:56:59.604Z,77.79
2022-08-24T00:59:35.305Z,77.98
2022-08-24T01:02:15.635Z,77.90
2022-08-24T01:04:50.565Z,77.83
2022-08-24T01:07:20.862Z,77.57
2022-08-24T01:09:49.035Z,77.69
2022-08-24T01:12:17.378Z,77.67
2022-08-24T01:14:45.760Z,77.71
2022-08-24T01:17:35.121Z,78.00
2022-08-24T01:20:10.724Z,78.00
2022-08-24T01:22:49.324Z,78.18
2022-08-24T01:25:18.736Z,78.02
2022-08-24T01:27:49.058Z,78.02
2022-08-24T01:30:17.954Z,77.89
2022-08-24T01:32:56.601Z,77.80
2022-08-24T01:35:25.296Z,77.92
2022-08-24T01:37:55.046Z,77.92
2022-08-24T01:40:30.373Z,77.90
2022-08-24T01:42:58.385Z,77.99
2022-08-24T01:45:26.737Z,77.84
2022-08-24T01:47:54.711Z,77.77
2022-08-24T01:50:22.870Z,77.87
2022-08-24T01:53:07.031Z,77.78
2022-08-24T01:55:36.851Z,78.23
2022-08-24T01:58:06.008Z,78.14
2022-08-24T02:00:34.918Z,77.97
2022-08-24T02:03:03.761Z,77.94
2022-08-24T02:05:32.055Z,78.34
2022-08-24T02:08:00.275Z,78.35
2022-08-24T02:10:28.825Z,78.39
2022-08-24T02:12:59.405Z,78.24
2022-08-24T02:15:30.090Z,78.11
2022-08-24T02:17:58.628Z,77.82
2022-08-24T02:20:28.141Z,77.97
2022-08-24T02:22:57.080Z,77.55
2022-08-24T02:25:26.248Z,77.59
2022-08-24T02:27:54.264Z,77.52
2022-08-24T02:30:23.470Z,77.66
2022-08-24T02:32:51.685Z,77.65
2022-08-24T02:35:20.082Z,77.72
2022-08-24T02:37:49.616Z,77.87
2022-08-24T02:40:18.189Z,78.02
2022-08-24T02:42:46.756Z,78.30
2022-08-24T02:45:15.178Z,78.14
2022-08-24T02:47:45.176Z,77.76
2022-08-24T02:50:15.594Z,78.01
2022-08-24T02:52:45.080Z,77.84
2022-08-24T02:55:15.585Z,77.93
2022-08-24T02:57:49.502Z,77.67
2022-08-24T03:00:20.507Z,77.65
2022-08-24T03:02:56.652Z,77.75
2022-08-24T03:05:24.993Z,77.86
2022-08-24T03:07:53.148Z,77.69
2022-08-24T03:10:21.265Z,77.89
2022-08-24T03:12:50.125Z,77.69
2022-08-24T03:15:22.385Z,77.49
2022-08-24T03:17:51.525Z,77.39
2022-08-24T03:20:23.568Z,77.48
2022-08-24T03:22:52.078Z,77.58
2022-08-24T03:25:24.402Z,77.68
2022-08-24T03:27:53.169Z,77.84
2022-08-24T03:30:21.895Z,77.96
2022-08-24T03:32:50.301Z,77.48
2022-08-24T03:35:21.820Z,77.69
2022-08-24T03:37:51.243Z,77.59
2022-08-24T03:40:22.824Z,77.55
2022-08-24T03:42:54.767Z,77.38
2022-08-24T03:45:23.512Z,77.46
2022-08-24T03:47:52.176Z,77.54
2022-08-24T03:50:21.763Z,77.34
2022-08-24T03:52:51.563Z,77.59
2022-08-24T03:55:19.835Z,77.45
2022-08-24T03:57:48.934Z,77.49
2022-08-24T04:00:17.980Z,77.20
2022-08-24T04:02:55.090Z,77.41
2022-08-24T04:05:25.825Z,77.22
2022-08-24T04:07:55.143Z,77.31
2022-08-24T04:10:23.131Z,77.19
2022-08-24T04:12:51.031Z,77.36
2022-08-24T04:15:24.430Z,77.08
2022-08-24T04:17:52.621Z,77.11
2022-08-24T04:20:20.655Z,76.88
2022-08-24T04:22:53.491Z,76.63
2022-08-24T04:25:25.220Z,76.54
2022-08-24T04:27:53.523Z,76.42
2022-08-24T04:30:23.231Z,76.39
2022-08-24T04:33:07.235Z,76.41
2022-08-24T04:35:39.051Z,76.25
2022-08-24T04:38:07.815Z,76.33
2022-08-24T04:40:40.344Z,76.23
2022-08-24T04:43:09.952Z,76.00
2022-08-24T04:45:40.249Z,75.86
2022-08-24T04:48:08.944Z,75.98
2022-08-24T04:50:37.775Z,75.83
2022-08-24T04:53:08.048Z,76.18
2022-08-24T04:55:44.216Z,75.67
2022-08-24T04:58:13.358Z,75.75
2022-08-24T05:00:42.146Z,75.85
2022-08-24T05:03:10.469Z,76.01
2022-08-24T05:05:42.212Z,75.65
2022-08-24T05:08:10.199Z,75.57
2022-08-24T05:10:41.420Z,75.75
2022-08-24T05:13:09.916Z,75.44
2022-08-24T05:15:42.689Z,75.46
2022-08-24T05:18:11.908Z,75.55
2022-08-24T05:20:41.477Z,75.52
2022-08-24T05:23:09.922Z,75.53
2022-08-24T05:25:41.076Z,75.21
2022-08-24T05:28:09.283Z,75.24
2022-08-24T05:30:42.336Z,75.15
2022-08-24T05:33:11.095Z,75.22
2022-08-24T05:35:39.759Z,75.16
2022-08-24T05:38:13.132Z,75.13
2022-08-24T05:40:42.409Z,75.18
2022-08-24T05:43:11.061Z,75.25
2022-08-24T05:45:42.800Z,75.28
2022-08-24T05:48:11.948Z,75.50
2022-08-24T05:50:59.122Z,75.63
2022-08-24T05:53:31.761Z,75.62
2022-08-24T05:56:03.957Z,75.74
2022-08-24T05:58:31.960Z,75.60
2022-08-24T06:01:07.584Z,75.60
2022-08-24T06:03:35.816Z,75.52
2022-08-24T06:06:06.396Z,75.59
2022-08-24T06:08:43.056Z,75.71
2022-08-24T06:11:20.717Z,75.60
2022-08-24T06:13:51.859Z,75.39
2022-08-24T06:16:25.228Z,75.42
2022-08-24T06:18:58.164Z,75.39
2022-08-24T06:21:29.030Z,75.81
2022-08-24T06:23:59.547Z,76.06
2022-08-24T06:26:49.135Z,75.94
2022-08-24T06:29:19.022Z,76.11
2022-08-24T06:31:54.712Z,76.00
2022-08-24T06:34:26.131Z,75.85
2022-08-24T06:36:54.848Z,76.07
2022-08-24T06:39:24.728Z,75.95
2022-08-24T06:41:56.454Z,75.81
2022-08-24T06:44:31.885Z,75.45
2022-08-24T06:47:11.280Z,75.65
2022-08-24T06:49:41.059Z,75.65
2022-08-24T06:52:10.150Z,75.90
2022-08-24T06:54:38.941Z,76.09
2022-08-24T06:57:10.266Z,75.92
2022-08-24T06:59:38.107Z,75.70
2022-08-24T07:02:06.554Z,75.81
2022-08-24T07:04:35.070Z,75.74
2022-08-24T07:07:21.305Z,75.44
2022-08-24T07:09:49.284Z,75.47
2022-08-24T07:12:18.594Z,75.29
2022-08-24T07:14:46.484Z,75.05
2022-08-24T07:17:14.409Z,74.79
2022-08-24T07:19:45.921Z,74.42
2022-08-24T07:22:22.461Z,73.74
2022-08-24T07:24:50.495Z,73.98
2022-08-24T07:27:23.268Z,73.63
2022-08-24T07:30:16.218Z,73.38
2022-08-24T07:32:43.029Z,73.11
2022-08-24T07:35:11.253Z,73.01
2022-08-24T07:37:41.996Z,72.91
2022-08-24T07:40:13.045Z,72.85
2022-08-24T07:42:43.078Z,72.65
2022-08-24T07:45:11.608Z,72.52
2022-08-24T07:47:44.715Z,72.31
2022-08-24T07:50:40.787Z,72.25
2022-08-24T07:53:12.424Z,72.24
2022-08-24T07:55:46.247Z,72.27
2022-08-24T07:58:15.949Z,71.89
2022-08-24T08:00:47.463Z,71.49
2022-08-24T08:03:15.925Z,71.95
2022-08-24T08:05:45.389Z,71.33
2022-08-24T08:08:13.461Z,71.50
2022-08-24T08:10:42.417Z,70.89
2022-08-24T08:13:10.292Z,71.33
2022-08-24T08:15:40.760Z,70.75
2022-08-24T08:18:11.288Z,70.53
2022-08-24T08:20:42.413Z,70.53
2022-08-24T08:23:29.172Z,69.66
2022-08-24T08:26:29.283Z,69.51
2022-08-24T08:29:04.337Z,69.18
2022-08-24T08:31:35.946Z,68.94
2022-08-24T08:34:05.602Z,69.04
2022-08-24T08:36:33.924Z,68.66
2022-08-24T08:39:02.288Z,69.02
2022-08-24T08:42:13.652Z,69.13
2022-08-24T08:44:56.578Z,68.84
2022-08-24T08:47:48.339Z,68.35
2022-08-24T08:50:23.826Z,68.47
2022-08-24T08:53:23.961Z,68.47
2022-08-24T08:56:02.537Z,67.47
2022-08-24T08:58:53.814Z,67.84
2022-08-24T09:01:47.012Z,67.50
2022-08-24T09:04:54.951Z,67.42
2022-08-24T09:07:35.327Z,66.78
2022-08-24T09:10:44.884Z,67.12
2022-08-24T09:13:28.096Z,67.52
2022-08-24T09:16:24.792Z,67.45
2022-08-24T09:19:25.980Z,67.27
2022-08-24T09:22:11.837Z,66.90
2022-08-24T09:25:07.033Z,66.94
2022-08-24T09:27:54.127Z,67.73
2022-08-24T09:30:23.823Z,67.56
2022-08-24T09:33:05.239Z,67.21
2022-08-24T09:35:40.381Z,67.15
2022-08-24T09:38:23.778Z,66.94
2022-08-24T09:41:16.429Z,66.84
2022-08-24T09:44:20.252Z,67.29
2022-08-24T09:47:15.452Z,67.55
2022-08-24T09:50:03.211Z,67.66
2022-08-24T09:52:55.524Z,67.43
2022-08-24T09:56:04.902Z,67.28
2022-08-24T09:58:45.890Z,67.39
2022-08-24T10:01:22.655Z,67.64
2022-08-24T10:04:05.148Z,66.33
2022-08-24T10:06:46.764Z,64.77
2022-08-24T10:09:41.044Z,63.53
2022-08-24T10:12:21.925Z,63.66
2022-08-24T10:14:57.102Z,63.67
2022-08-24T10:17:42.610Z,64.11
2022-08-24T10:20:23.393Z,64.15
2022-08-24T10:23:30.863Z,63.74
2022-08-24T10:26:05.073Z,64.18
2022-08-24T10:29:03.679Z,64.75
2022-08-24T10:31:45.848Z,64.75
2022-08-24T10:34:28.831Z,64.27
2022-08-24T10:37:22.249Z,64.70
2022-08-24T10:40:09.348Z,63.47
2022-08-24T10:43:27.148Z,62.71
2022-08-24T10:46:33.201Z,62.43
2022-08-24T10:49:27.495Z,62.25
2022-08-24T10:52:23.212Z,61.39
2022-08-24T10:54:52.220Z,60.19
2022-08-24T10:57:31.050Z,60.00
2022-08-24T11:00:07.453Z,60.13
2022-08-24T11:02:37.798Z,60.35
2022-08-24T11:05:10.725Z,60.51
2022-08-24T11:07:54.464Z,60.71
2022-08-24T11:10:27.785Z,60.75
2022-08-24T11:12:56.303Z,60.75
2022-08-24T11:15:28.061Z,60.34
2022-08-24T11:17:58.626Z,60.31
2022-08-24T11:20:31.901Z,60.06
2022-08-24T11:23:05.133Z,60.32
2022-08-24T11:25:36.678Z,59.94
2022-08-24T11:28:09.656Z,58.55
2022-08-24T11:30:41.140Z,58.58
2022-08-24T11:33:27.561Z,58.56
2022-08-24T11:35:57.549Z,58.34
2022-08-24T11:38:29.077Z,58.39
2022-08-24T11:41:04.421Z,58.81
2022-08-24T11:43:59.257Z,58.89
2022-08-24T11:46:36.047Z,58.09
2022-08-24T11:49:11.095Z,57.08
2022-08-24T11:51:53.240Z,57.01
2022-08-24T11:54:31.590Z,56.26
2022-08-24T11:57:09.004Z,55.90
2022-08-24T11:59:46.579Z,55.83
2022-08-24T12:02:24.794Z,56.01
2022-08-24T12:04:59.312Z,56.33
2022-08-24T12:07:44.537Z,56.53
2022-08-24T12:10:32.107Z,56.06
2022-08-24T12:13:07.502Z,56.33
2022-08-24T12:15:48.713Z,56.20
2022-08-24T12:18:28.180Z,55.86
2022-08-24T12:20:58.029Z,54.64
2022-08-24T12:23:37.254Z,54.12
2022-08-24T12:26:10.317Z,53.54
2022-08-24T12:28:42.205Z,53.34
2022-08-24T12:31:15.969Z,52.30
2022-08-24T12:33:51.217Z,52.34
2022-08-24T12:36:26.175Z,52.43
2022-08-24T12:39:07.870Z,51.28
2022-08-24T12:41:39.804Z,50.36
2022-08-24T12:44:13.044Z,49.79
2022-08-24T12:46:43.091Z,49.63
2022-08-24T12:49:19.307Z,49.00
2022-08-24T12:52:04.270Z,49.21
2022-08-24T12:55:01.105Z,49.05
2022-08-24T12:58:04.702Z,48.80
2022-08-24T13:00:37.159Z,48.48
2022-08-24T13:03:08.363Z,49.00
2022-08-24T13:05:42.973Z,49.34
2022-08-24T13:08:15.525Z,49.58
2022-08-24T13:10:53.791Z,49.75
2022-08-24T13:13:41.471Z,50.42
2022-08-24T13:16:09.900Z,49.36
2022-08-24T13:18:50.839Z,49.00
2022-08-24T13:21:40.204Z,49.96
2022-08-24T13:24:45.144Z,49.54
2022-08-24T13:27:49.751Z,49.23
2022-08-24T13:30:26.003Z,48.94
2022-08-24T13:33:03.264Z,49.43
2022-08-24T13:35:54.794Z,48.74
2022-08-24T13:38:33.937Z,48.86
2022-08-24T13:41:06.954Z,48.50
2022-08-24T13:43:39.611Z,47.94
2022-08-24T13:46:21.023Z,48.40
2022-08-24T13:48:57.826Z,47.67
2022-08-24T13:51:36.765Z,47.92
2022-08-24T13:54:22.428Z,47.62
2022-08-24T13:57:07.391Z,48.09
2022-08-24T13:59:50.949Z,47.80
2022-08-24T14:02:32.325Z,47.19
2022-08-24T14:05:10.483Z,47.11
2022-08-24T14:07:53.151Z,47.15
2022-08-24T14:10:38.321Z,46.92
2022-08-24T14:13:26.433Z,46.85
2022-08-24T14:16:14.090Z,46.50
2022-08-24T14:19:00.099Z,47.01
2022-08-24T14:21:42.084Z,45.92
2022-08-24T14:24:14.084Z,45.42
2022-08-24T14:27:12.901Z,45.17
2022-08-24T14:29:46.723Z,44.95
2022-08-24T14:32:40.643Z,44.90
2022-08-24T14:35:32.433Z,45.00
2022-08-24T14:38:15.636Z,45.36
2022-08-24T14:40:58.773Z,45.82
2022-08-24T14:43:33.784Z,45.42
2022-08-24T14:46:12.868Z,45.41
2022-08-24T14:48:55.285Z,45.10
2022-08-24T14:51:54.198Z,44.81
2022-08-24T14:54:33.108Z,43.50
2022-08-24T14:57:20.421Z,43.21
2022-08-24T14:59:58.464Z,42.79
2022-08-24T15:02:55.746Z,42.17
2022-08-24T15:05:31.668Z,42.49
2022-08-24T15:08:03.303Z,42.83
2022-08-24T15:10:36.915Z,43.10
2022-08-24T15:13:09.088Z,43.31
2022-08-24T15:15:44.450Z,43.75
2022-08-24T15:18:26.165Z,43.58
2022-08-24T15:21:06.344Z,43.47
2022-08-24T15:23:51.613Z,43.55
2022-08-24T15:26:30.261Z,44.77
2022-08-24T15:28:58.756Z,46.30
2022-08-24T15:31:29.352Z,47.11
2022-08-24T15:34:01.185Z,48.45
2022-08-24T15:36:32.930Z,48.88
2022-08-24T15:39:03.787Z,50.22
2022-08-24T15:41:35.586Z,50.19
2022-08-24T15:44:07.607Z,51.05
2022-08-24T15:46:38.611Z,51.79
2022-08-24T15:49:17.122Z,53.54
2022-08-24T15:51:54.255Z,55.23
2022-08-24T15:54:37.799Z,57.90
2022-08-24T15:57:11.585Z,59.29
2022-08-24T15:59:49.181Z,60.23
2022-08-24T16:02:26.081Z,61.14
2022-08-24T16:05:10.164Z,62.02
2022-08-24T16:08:07.604Z,63.32
2022-08-24T16:10:40.625Z,63.66
2022-08-24T16:13:13.162Z,63.58
2022-08-24T16:15:47.598Z,63.42
2022-08-24T16:18:16.813Z,62.94
2022-08-24T16:20:46.236Z,62.57
2022-08-24T16:23:23.484Z,62.12
2022-08-24T16:26:20.829Z,61.73
2022-08-24T16:28:49.246Z,61.20
2022-08-24T16:31:45.830Z,60.93
2022-08-24T16:34:21.329Z,60.91
2022-08-24T16:36:49.343Z,60.62
2022-08-24T16:39:18.442Z,60.42
2022-08-24T16:41:50.052Z,60.60
2022-08-24T16:44:18.453Z,60.96
2022-08-24T16:46:48.102Z,61.20
2022-08-24T16:49:16.285Z,61.56
2022-08-24T16:51:45.345Z,61.71
2022-08-24T16:54:13.689Z,61.40
2022-08-24T16:56:42.562Z,61.84
2022-08-24T16:59:16.799Z,61.74
2022-08-24T17:01:44.834Z,62.78
2022-08-24T17:04:12.744Z,63.37
2022-08-24T17:06:40.867Z,64.01
2022-08-24T17:09:08.980Z,64.80
2022-08-24T17:11:38.208Z,65.57
2022-08-24T17:14:07.009Z,66.04
2022-08-24T17:16:38.800Z,66.80
2022-08-24T17:19:11.568Z,67.39
2022-08-24T17:21:40.896Z,67.33
2022-08-24T17:24:09.990Z,67.82
2022-08-24T17:26:40.855Z,67.66
2022-08-24T17:29:18.511Z,67.80
2022-08-24T17:31:50.760Z,67.78
2022-08-24T17:34:20.378Z,68.15
2022-08-24T17:36:50.400Z,68.03
2022-08-24T17:39:19.288Z,68.09
2022-08-24T17:41:47.631Z,68.48
2022-08-24T17:44:20.994Z,68.44
2022-08-24T17:46:51.472Z,68.29
2022-08-24T17:49:19.576Z,68.63
2022-08-24T17:51:48.436Z,69.41
2022-08-24T17:54:16.917Z,71.13
2022-08-24T17:56:46.557Z,71.08
2022-08-24T17:59:23.555Z,72.41
2022-08-24T18:01:55.277Z,73.15
2022-08-24T18:04:27.657Z,74.21
2022-08-24T18:06:57.005Z,75.55
2022-08-24T18:09:31.037Z,76.12
2022-08-24T18:12:04.224Z,76.10
2022-08-24T18:14:34.444Z,76.37
2022-08-24T18:17:07.496Z,76.71
2022-08-24T18:19:36.887Z,77.05
2022-08-24T18:22:05.287Z,77.73
2022-08-24T18:24:33.768Z,78.15
2022-08-24T18:27:03.000Z,78.66
2022-08-24T18:29:40.791Z,78.63
2022-08-24T18:32:12.578Z,78.30
2022-08-24T18:34:41.527Z,78.37
2022-08-24T18:37:09.784Z,78.06
2022-08-24T18:39:37.706Z,77.57
2022-08-24T18:42:08.888Z,77.51
2022-08-24T18:44:38.073Z,77.11
2022-08-24T18:47:06.376Z,77.43
2022-08-24T18:49:36.512Z,77.73
2022-08-24T18:52:07.654Z,77.35
2022-08-24T18:54:38.093Z,77.54
2022-08-24T18:57:08.610Z,76.97
2022-08-24T18:59:39.360Z,76.48
2022-08-24T19:02:30.025Z,76.42
2022-08-24T19:05:01.306Z,76.33
2022-08-24T19:07:32.081Z,75.92
2022-08-24T19:10:00.616Z,75.82
2022-08-24T19:12:31.453Z,76.08
2022-08-24T19:15:03.040Z,75.83
2022-08-24T19:17:31.300Z,75.88
2022-08-24T19:20:00.553Z,75.52
2022-08-24T19:22:28.918Z,75.48
2022-08-24T19:24:58.332Z,74.78
2022-08-24T19:27:26.323Z,75.14
2022-08-24T19:29:56.467Z,74.96
2022-08-24T19:32:27.253Z,75.34
2022-08-24T19:34:56.156Z,75.38
2022-08-24T19:37:25.442Z,75.60
2022-08-24T19:39:53.431Z,75.91
2022-08-24T19:42:22.055Z,75.24
2022-08-24T19:45:07.295Z,75.27
2022-08-24T19:47:35.345Z,75.32
2022-08-24T19:50:05.524Z,75.06
2022-08-24T19:52:36.426Z,75.03
2022-08-24T19:55:06.307Z,74.83
2022-08-24T19:57:44.150Z,75.07
2022-08-24T20:00:25.456Z,75.11
2022-08-24T20:02:55.553Z,75.21
2022-08-24T20:05:26.512Z,75.49
2022-08-24T20:07:57.573Z,75.40
2022-08-24T20:10:26.023Z,75.12
2022-08-24T20:12:54.145Z,75.57
2022-08-24T20:15:22.568Z,75.30
2022-08-24T20:17:51.152Z,75.54
2022-08-24T20:20:21.731Z,75.56
2022-08-24T20:22:49.828Z,75.61
2022-08-24T20:25:20.340Z,75.88
2022-08-24T20:27:58.082Z,75.84
2022-08-24T20:30:38.271Z,75.90
2022-08-24T20:33:11.843Z,75.62
2022-08-24T20:35:40.241Z,75.61
2022-08-24T20:38:08.757Z,75.83
2022-08-24T20:40:38.013Z,75.92
2022-08-24T20:43:07.094Z,75.46
2022-08-24T20:45:35.836Z,76.17
2022-08-24T20:48:05.844Z,76.17
2022-08-24T20:50:34.789Z,76.21
2022-08-24T20:53:02.936Z,76.85
2022-08-24T20:55:30.964Z,76.68
2022-08-24T20:58:03.313Z,76.59
2022-08-24T21:00:31.671Z,76.37
2022-08-24T21:02:59.733Z,76.77
2022-08-24T21:05:27.676Z,77.21
2022-08-24T21:07:57.772Z,76.97
2022-08-24T21:10:27.091Z,76.96
2022-08-24T21:12:55.542Z,77.18
2022-08-24T21:15:24.847Z,76.92
2022-08-24T21:17:52.948Z,76.99
2022-08-24T21:20:21.964Z,76.69
2022-08-24T21:22:50.767Z,76.66
2022-08-24T21:25:19.252Z,76.48
2022-08-24T21:27:49.004Z,76.57
2022-08-24T21:30:20.751Z,76.75
2022-08-24T21:33:07.266Z,76.71
2022-08-24T21:35:36.808Z,76.80
2022-08-24T21:38:05.389Z,76.76
2022-08-24T21:40:36.489Z,76.93
2022-08-24T21:43:14.603Z,76.99
2022-08-24T21:45:43.225Z,77.06
2022-08-24T21:48:14.553Z,77.06
2022-08-24T21:50:43.348Z,77.30
2022-08-24T21:53:11.643Z,77.20
2022-08-24T21:55:42.546Z,77.51
2022-08-24T21:58:10.465Z,77.31
2022-08-24T22:00:39.166Z,78.05
2022-08-24T22:03:08.554Z,78.69
2022-08-24T22:05:38.456Z,79.08
2022-08-24T22:08:06.459Z,79.15
2022-08-24T22:10:34.378Z,79.47
2022-08-24T22:13:04.482Z,79.91
2022-08-24T22:15:33.166Z,80.67
2022-08-24T22:18:01.457Z,81.14
2022-08-24T22:20:29.408Z,81.43
2022-08-24T22:22:59.410Z,81.80
2022-08-24T22:25:27.376Z,82.22
2022-08-24T22:27:55.375Z,82.65
2022-08-24T22:30:23.515Z,82.60
2022-08-24T22:32:51.493Z,81.63
2022-08-24T22:35:19.672Z,81.67
2022-08-24T22:37:47.795Z,81.21
2022-08-24T22:40:19.134Z,80.86
2022-08-24T22:42:47.201Z,80.69
2022-08-24T22:45:14.156Z,80.46
2022-08-24T22:47:42.072Z,80.14
2022-08-24T22:50:10.950Z,79.89
2022-08-24T22:52:38.998Z,80.05
2022-08-24T22:55:07.773Z,80.20
2022-08-24T22:57:37.075Z,80.12
2022-08-24T23:00:07.844Z,79.99
2022-08-24T23:02:36.797Z,79.87
2022-08-24T23:05:05.315Z,79.54
2022-08-24T23:07:35.308Z,79.69
2022-08-24T23:10:03.454Z,79.97
2022-08-24T23:12:31.779Z,80.35
2022-08-24T23:15:01.721Z,81.28
2022-08-24T23:17:29.750Z,81.46
2022-08-24T23:20:06.301Z,81.55
2022-08-24T23:22:36.564Z,82.03
2022-08-24T23:25:05.536Z,82.03
2022-08-24T23:27:38.497Z,81.85
2022-08-24T23:30:11.773Z,81.21
2022-08-24T23:32:40.680Z,81.28
2022-08-24T23:35:09.813Z,81.51
2022-08-24T23:37:37.741Z,81.32
2022-08-24T23:40:06.538Z,81.26
2022-08-24T23:42:34.624Z,81.05
2022-08-24T23:45:02.562Z,81.00
2022-08-24T23:47:35.647Z,80.73
2022-08-24T23:50:06.717Z,80.90
2022-08-24T23:52:39.218Z,80.99
2022-08-24T23:55:21.649Z,80.87
2022-08-24T23:57:51.176Z,80.83
